»·PEaware :: N5205X KSBD-KEMT

N5205X :: KSBD-KEMT

FLIGHT INFORMATION

Flight Status: Arrived
Operator: Privately registered:
United States
More flights under this callsign
Pilot: Martin B. (29991)
Aircraft: CIRRUS SR-22 TURBO
(S22T)
More flights by this aircraft type
Origin: KSBD San Bernardino Intl
United States
Destination: KEMT El Monte
United States
More flights between these airports :: More routes between these airports
Route:
File this flight plan on PilotEdge
Remarks:
Altitude:
(Current/Filed)
4,500ft
Speed:
(Current/Filed)
170kts
Departed: 08-Jan-21 11:53 AM
Arrived: 08-Jan-21 01:16 PM
Distance/Time
Traveled:
40nm/1:23
Distance/Time
To Go:
Arrived

Flight Plot

Page will automatically refresh every two minutes.


Map Options




Map Legend


Flown Route
Filed Route
Departure Airport
Arrival Airport
Navaid (VOR, NDB)
Fix

Horizontal Profiles

Position Reports

Time Latitude Longitude Heading Altitude Ground
Speed
08-Jan-21 11:36 34.102166 -117.224730 94 1149ft 0kts
08-Jan-21 11:37 34.102166 -117.224730 94 1149ft 0kts
08-Jan-21 11:38 34.102166 -117.224730 93 1149ft 0kts
08-Jan-21 11:39 34.102166 -117.224730 93 1149ft 0kts
08-Jan-21 11:40 34.102166 -117.224730 93 1149ft 0kts
08-Jan-21 11:41 34.102166 -117.224730 93 1149ft 0kts
08-Jan-21 11:42 34.102166 -117.224730 93 1149ft 0kts
08-Jan-21 11:43 34.102166 -117.224730 93 1149ft 0kts
08-Jan-21 11:44 34.101633 -117.224793 182 1148ft 9kts
08-Jan-21 11:45 34.099266 -117.227748 242 1139ft 19kts
08-Jan-21 11:46 34.097325 -117.234273 252 1122ft 21kts
08-Jan-21 11:47 34.095506 -117.240383 250 1106ft 18kts
08-Jan-21 11:48 34.093980 -117.245508 261 1095ft 7kts
08-Jan-21 11:49 34.092716 -117.250635 229 1086ft 2kts
08-Jan-21 11:50 34.092712 -117.250638 216 1086ft 0kts
08-Jan-21 11:51 34.091796 -117.250802 167 1085ft 0kts
08-Jan-21 11:52 34.091367 -117.248192 72 1091ft 53kts
08-Jan-21 11:53 34.092301 -117.217793 149 2446ft 109kts
08-Jan-21 11:54 34.065414 -117.244481 257 2616ft 180kts
08-Jan-21 11:55 34.055839 -117.292379 257 2553ft 97kts
08-Jan-21 11:56 34.049594 -117.322189 257 2599ft 89kts
08-Jan-21 11:57 34.043541 -117.350746 257 2723ft 81kts
08-Jan-21 11:58 34.045452 -117.377260 285 3072ft 77kts
08-Jan-21 11:59 34.050338 -117.402752 285 3603ft 77kts
08-Jan-21 12:00 34.055158 -117.427815 285 4136ft 76kts
08-Jan-21 12:01 34.060143 -117.453568 284 4566ft 90kts
08-Jan-21 12:02 34.067176 -117.490337 283 4545ft 126kts
08-Jan-21 12:03 34.075373 -117.533261 282 4534ft 133kts
08-Jan-21 12:04 34.083746 -117.576999 281 4534ft 134kts
08-Jan-21 12:05 34.092636 -117.622877 282 4544ft 158kts
08-Jan-21 12:06 34.090859 -117.676872 269 4527ft 172kts
08-Jan-21 12:07 34.089189 -117.735285 268 4537ft 176kts
08-Jan-21 12:08 34.087002 -117.794752 268 4542ft 178kts
08-Jan-21 12:09 34.084527 -117.855107 268 4546ft 180kts
08-Jan-21 12:10 34.082215 -117.905811 268 3624ft 119kts
08-Jan-21 12:11 34.080441 -117.941640 268 2614ft 97kts
08-Jan-21 12:12 34.078890 -117.973340 273 1758ft 95kts
08-Jan-21 12:13 34.077604 -118.003423 268 1341ft 81kts
08-Jan-21 12:14 34.086152 -118.019075 35 1206ft 83kts
08-Jan-21 12:15 34.093334 -117.993187 18 1463ft 85kts
08-Jan-21 12:16 34.093626 -118.013072 238 1115ft 87kts
08-Jan-21 12:17 34.072075 -118.025470 207 1203ft 89kts
08-Jan-21 12:18 34.046300 -118.055441 250 1842ft 148kts
08-Jan-21 12:19 34.059031 -118.044631 115 2265ft 161kts
08-Jan-21 12:20 34.039880 -118.038103 215 2203ft 182kts
08-Jan-21 12:36 34.102166 -117.224730 0 1149ft 0kts
08-Jan-21 12:37 34.102166 -117.224730 94 1149ft 0kts
08-Jan-21 12:38 34.102166 -117.224730 94 1149ft 0kts
08-Jan-21 12:40 34.102166 -117.224730 94 1149ft 0kts
08-Jan-21 12:41 34.102166 -117.224730 94 1149ft 0kts
08-Jan-21 12:42 34.102166 -117.224730 94 1149ft 0kts
08-Jan-21 12:43 34.102166 -117.224730 94 1149ft 0kts
08-Jan-21 12:44 34.102166 -117.224730 94 1149ft 0kts
08-Jan-21 12:45 34.102166 -117.224730 94 1149ft 0kts
08-Jan-21 12:46 34.102166 -117.224730 93 1149ft 0kts
08-Jan-21 12:47 34.102166 -117.224730 93 1149ft 0kts
08-Jan-21 12:48 34.101138 -117.224962 191 1147ft 13kts
08-Jan-21 12:49 34.099866 -117.226676 229 1142ft 11kts
08-Jan-21 12:50 34.097513 -117.233644 248 1124ft 26kts
08-Jan-21 12:51 34.095092 -117.241815 250 1102ft 23kts
08-Jan-21 12:52 34.093053 -117.248750 249 1088ft 20kts
08-Jan-21 12:53 34.091593 -117.250713 155 1085ft 0kts
08-Jan-21 12:54 34.090979 -117.249477 76 1088ft 18kts
08-Jan-21 12:54 34.097099 -117.227534 84 1669ft 105kts
08-Jan-21 12:56 34.069526 -117.223883 250 2693ft 151kts
08-Jan-21 12:56 34.067607 -117.266866 270 2646ft 146kts
08-Jan-21 12:57 34.066817 -117.309682 270 2640ft 107kts
08-Jan-21 12:58 34.066073 -117.343403 269 2629ft 87kts
08-Jan-21 12:59 34.065299 -117.371379 270 2576ft 80kts
08-Jan-21 13:00 34.066518 -117.407238 299 3331ft 128kts
08-Jan-21 13:01 34.084850 -117.447937 299 4101ft 144kts
08-Jan-21 13:02 34.096761 -117.494940 273 4552ft 159kts
08-Jan-21 13:03 34.096285 -117.550411 270 4540ft 167kts
08-Jan-21 13:04 34.095191 -117.606760 270 4534ft 168kts
08-Jan-21 13:05 34.094026 -117.663318 269 4528ft 168kts
08-Jan-21 13:06 34.092720 -117.719950 269 4531ft 169kts
08-Jan-21 13:07 34.091415 -117.776533 269 4533ft 167kts
08-Jan-21 13:08 34.090120 -117.832943 269 4536ft 167kts
08-Jan-21 13:09 34.095820 -117.886151 280 4154ft 137kts
08-Jan-21 13:10 34.101603 -117.923274 283 3315ft 99kts
08-Jan-21 13:11 34.107348 -117.955171 284 2605ft 99kts
08-Jan-21 13:12 34.112904 -117.988947 280 1942ft 105kts
08-Jan-21 13:13 34.113167 -118.022726 220 1314ft 100kts
08-Jan-21 13:14 34.088297 -118.033538 203 309ft 81kts
08-Jan-21 13:15 34.080947 -118.037230 76 286ft 0kts
08-Jan-21 13:16 34.081941 -118.036137 25 288ft 5kts

Navigation Log

Ident Type
Flight plan parsing failed, navigation log unavailable